Time;durP1;ratioP1;P1;durP2;ratioP2;P2;SDS_P1;SDS_P2;PMS_P1;PMS_P2;Temp;Humidity;BMP_temperature;BMP_pressure;BME280_temperature;BME280_humidity;BME280_pressure;Samples;Min_cycle;Max_cycle;Signal;HPM_P1;HPM_P2
2021/12/30 00:01:12;;;;;;;1.25;0.40;;;;;;;;;;5034876;28;20403;-70
2021/12/30 00:03:38;;;;;;;0.90;0.50;;;;;;;;;;5016139;28;20014;-71
2021/12/30 00:06:03;;;;;;;0.88;0.40;;;;;;;;;;5033991;28;20390;-70
2021/12/30 00:08:28;;;;;;;0.93;0.30;;;;;;;;;;5034071;28;20018;-70
2021/12/30 00:10:56;;;;;;;0.17;0.10;;;;;;;;;;5010864;28;20258;-70
2021/12/30 00:13:21;;;;;;;0.38;0.30;;;;;;;;;;5015810;28;20120;-70
2021/12/30 00:15:47;;;;;;;0.20;0.20;;;;;;;;;;5028884;28;20064;-70
2021/12/30 00:18:12;;;;;;;0.30;0.22;;;;;;;;;;5030948;28;20458;-70
2021/12/30 00:20:37;;;;;;;1.42;0.25;;;;;;;;;;5028563;28;20458;-70
2021/12/30 00:23:06;;;;;;;0.57;0.28;;;;;;;;;;5033517;28;20080;-70
2021/12/30 00:25:38;;;;;;;0.50;0.25;;;;;;;;;;5033685;28;20033;-70
2021/12/30 00:28:04;;;;;;;0.32;0.30;;;;;;;;;;5016128;28;20039;-70
2021/12/30 00:30:29;;;;;;;0.35;0.30;;;;;;;;;;5033578;28;20033;-70
2021/12/30 00:32:54;;;;;;;0.80;0.30;;;;;;;;;;5015629;28;20053;-70
2021/12/30 00:35:19;;;;;;;0.25;0.20;;;;;;;;;;5033727;28;20036;-70
2021/12/30 00:37:44;;;;;;;0.57;0.20;;;;;;;;;;5033179;28;20155;-70
2021/12/30 00:40:10;;;;;;;0.30;0.30;;;;;;;;;;4996169;28;20055;-70
2021/12/30 00:42:35;;;;;;;0.40;0.35;;;;;;;;;;5034163;28;20041;-70
2021/12/30 00:45:01;;;;;;;0.40;0.30;;;;;;;;;;5037274;28;20029;-70
2021/12/30 00:47:26;;;;;;;0.55;0.25;;;;;;;;;;5033646;28;20022;-70
2021/12/30 00:49:52;;;;;;;0.50;0.30;;;;;;;;;;5036645;28;20037;-70
2021/12/30 00:52:17;;;;;;;0.80;0.30;;;;;;;;;;5014480;28;20022;-70
2021/12/30 00:54:42;;;;;;;1.20;0.40;;;;;;;;;;5015679;28;20013;-70
2021/12/30 00:57:07;;;;;;;0.50;0.40;;;;;;;;;;5020393;28;20028;-70
2021/12/30 00:59:33;;;;;;;0.50;0.40;;;;;;;;;;5053489;28;20159;-70
2021/12/30 01:01:58;;;;;;;0.93;0.30;;;;;;;;;;5043833;28;20057;-69
2021/12/30 01:04:23;;;;;;;0.30;0.28;;;;;;;;;;5033148;28;20053;-70
2021/12/30 01:06:48;;;;;;;0.60;0.30;;;;;;;;;;5032523;28;20033;-69
2021/12/30 01:09:13;;;;;;;1.35;0.40;;;;;;;;;;5014056;28;20041;-70
2021/12/30 01:11:39;;;;;;;0.55;0.40;;;;;;;;;;5033128;28;20036;-70
2021/12/30 01:14:14;;;;;;;0.47;0.40;;;;;;;;;;5032568;28;20091;-70
2021/12/30 01:16:42;;;;;;;0.77;0.47;;;;;;;;;;5021519;28;20367;-70
2021/12/30 01:21:46;;;;;;;1.65;0.90;;;;;;;;;;5032612;28;20831;-70
2021/12/30 01:24:11;;;;;;;1.08;0.80;;;;;;;;;;5031099;28;20060;-71
2021/12/30 01:26:36;;;;;;;2.97;1.17;;;;;;;;;;5033044;28;20170;-70
2021/12/30 01:29:02;;;;;;;1.60;1.20;;;;;;;;;;5021712;28;20505;-70
2021/12/30 01:31:27;;;;;;;2.45;1.80;;;;;;;;;;4997943;28;20029;-70
2021/12/30 01:33:52;;;;;;;3.83;1.52;;;;;;;;;;5032075;28;20028;-71
2021/12/30 01:36:18;;;;;;;2.42;1.20;;;;;;;;;;5014100;28;20034;-71
2021/12/30 01:38:44;;;;;;;2.80;1.45;;;;;;;;;;5031420;28;20538;-70
2021/12/30 01:41:09;;;;;;;2.55;1.45;;;;;;;;;;5026816;28;20041;-70
2021/12/30 01:43:38;;;;;;;1.50;0.93;;;;;;;;;;5030915;28;20025;-70
2021/12/30 01:46:05;;;;;;;2.15;1.58;;;;;;;;;;5032512;28;20108;-70
2021/12/30 01:48:30;;;;;;;1.58;1.10;;;;;;;;;;5032340;28;20029;-70
2021/12/30 01:50:55;;;;;;;1.98;0.93;;;;;;;;;;5014995;28;20021;-70
2021/12/30 01:53:21;;;;;;;1.30;0.95;;;;;;;;;;5031541;28;20021;-70
2021/12/30 01:55:46;;;;;;;1.08;0.98;;;;;;;;;;5014195;28;20492;-70
2021/12/30 01:58:13;;;;;;;1.35;1.20;;;;;;;;;;5013991;28;20428;-70
2021/12/30 02:00:39;;;;;;;1.13;1.02;;;;;;;;;;5032583;28;20025;-70
2021/12/30 02:03:05;;;;;;;1.60;1.25;;;;;;;;;;5032187;28;20223;-70
2021/12/30 02:05:31;;;;;;;1.30;0.95;;;;;;;;;;5012813;28;20505;-70
2021/12/30 02:07:57;;;;;;;1.45;1.08;;;;;;;;;;5014411;28;20146;-70
2021/12/30 02:10:22;;;;;;;1.73;1.10;;;;;;;;;;5022809;28;20025;-70
2021/12/30 02:12:48;;;;;;;1.83;1.10;;;;;;;;;;5020808;28;20497;-70
2021/12/30 02:15:15;;;;;;;1.05;0.90;;;;;;;;;;5008143;28;20120;-70
2021/12/30 02:17:40;;;;;;;1.35;0.60;;;;;;;;;;5031627;28;20466;-70
2021/12/30 02:20:25;;;;;;;1.42;0.70;;;;;;;;;;5013354;28;20037;-70
2021/12/30 02:22:51;;;;;;;1.00;0.75;;;;;;;;;;5017260;28;20099;-70
2021/12/30 02:25:16;;;;;;;1.10;0.98;;;;;;;;;;5031292;28;20478;-71
2021/12/30 02:27:41;;;;;;;1.38;0.65;;;;;;;;;;5031119;28;20037;-69
2021/12/30 02:30:06;;;;;;;0.88;0.70;;;;;;;;;;5031317;28;20060;-69
2021/12/30 02:32:31;;;;;;;1.13;0.40;;;;;;;;;;5031314;28;20029;-69
2021/12/30 02:34:57;;;;;;;0.80;0.55;;;;;;;;;;5031378;28;20021;-70
2021/12/30 02:37:22;;;;;;;0.55;0.40;;;;;;;;;;5030466;28;20021;-69
2021/12/30 02:39:53;;;;;;;0.40;0.30;;;;;;;;;;5012748;28;21742;-70
2021/12/30 02:42:22;;;;;;;0.85;0.50;;;;;;;;;;5030508;28;20052;-70
2021/12/30 02:44:47;;;;;;;0.80;0.50;;;;;;;;;;5031264;28;20321;-70
2021/12/30 02:47:14;;;;;;;0.30;0.30;;;;;;;;;;4997114;28;20299;-70
2021/12/30 02:49:39;;;;;;;1.55;0.85;;;;;;;;;;5030805;28;20057;-70
2021/12/30 02:52:05;;;;;;;0.50;0.50;;;;;;;;;;5020224;28;20068;-69
2021/12/30 02:54:30;;;;;;;0.50;0.50;;;;;;;;;;5031820;28;20411;-69
2021/12/30 02:56:55;;;;;;;1.95;0.65;;;;;;;;;;5025362;28;20378;-70
2021/12/30 02:59:20;;;;;;;1.58;0.75;;;;;;;;;;5012106;28;20447;-70
2021/12/30 03:01:46;;;;;;;0.77;0.50;;;;;;;;;;5018956;28;20025;-69
2021/12/30 03:04:12;;;;;;;1.05;0.70;;;;;;;;;;5012786;28;20029;-70
2021/12/30 03:06:38;;;;;;;1.20;0.60;;;;;;;;;;5030887;28;20095;-69
2021/12/30 03:09:03;;;;;;;1.55;0.50;;;;;;;;;;5031088;28;20536;-69
2021/12/30 03:11:28;;;;;;;1.40;0.65;;;;;;;;;;5025827;28;20465;-69
2021/12/30 03:13:54;;;;;;;1.50;0.40;;;;;;;;;;5030649;28;20022;-69
2021/12/30 03:16:21;;;;;;;2.47;0.57;;;;;;;;;;5031412;28;20100;-69
2021/12/30 03:18:47;;;;;;;0.52;0.50;;;;;;;;;;5030996;28;20018;-69
2021/12/30 03:21:13;;;;;;;0.85;0.43;;;;;;;;;;5010397;28;20028;-70
2021/12/30 03:23:39;;;;;;;1.13;0.50;;;;;;;;;;5030714;28;20022;-70
2021/12/30 03:26:05;;;;;;;0.52;0.30;;;;;;;;;;5013445;28;20030;-69
2021/12/30 03:28:30;;;;;;;1.38;0.50;;;;;;;;;;5030925;28;20513;-69
2021/12/30 03:30:59;;;;;;;1.25;0.55;;;;;;;;;;5030701;28;20061;-69
2021/12/30 03:33:25;;;;;;;0.85;0.40;;;;;;;;;;5023857;28;20165;-69
2021/12/30 03:35:51;;;;;;;1.85;0.75;;;;;;;;;;5021528;28;20051;-70
2021/12/30 03:38:16;;;;;;;1.15;0.90;;;;;;;;;;5030979;28;20076;-70
2021/12/30 03:40:41;;;;;;;0.50;0.50;;;;;;;;;;5026140;28;20041;-70
2021/12/30 03:43:06;;;;;;;0.80;0.63;;;;;;;;;;5002701;28;20026;-70
2021/12/30 03:45:31;;;;;;;1.23;0.70;;;;;;;;;;5013300;28;20034;-69
2021/12/30 03:47:57;;;;;;;2.13;0.65;;;;;;;;;;5030887;28;20197;-69
2021/12/30 03:50:23;;;;;;;1.60;0.80;;;;;;;;;;5008400;28;20033;-70
2021/12/30 03:53:00;;;;;;;1.17;0.70;;;;;;;;;;5027578;28;20029;-70
2021/12/30 03:55:26;;;;;;;1.95;0.68;;;;;;;;;;5026768;28;20528;-70
2021/12/30 03:57:53;;;;;;;1.45;0.80;;;;;;;;;;5034086;28;20506;-69
2021/12/30 04:00:19;;;;;;;0.70;0.57;;;;;;;;;;5034020;28;20021;-68
2021/12/30 04:02:44;;;;;;;0.63;0.50;;;;;;;;;;5034679;28;20117;-69
2021/12/30 04:05:10;;;;;;;0.77;0.60;;;;;;;;;;5032775;28;20049;-69
2021/12/30 04:07:35;;;;;;;1.40;0.50;;;;;;;;;;5033162;28;20033;-69
2021/12/30 04:10:00;;;;;;;0.73;0.40;;;;;;;;;;5027574;28;20564;-69
2021/12/30 04:12:26;;;;;;;0.88;0.30;;;;;;;;;;5034114;28;20040;-69
2021/12/30 04:14:51;;;;;;;1.30;0.30;;;;;;;;;;5034194;28;20025;-69
2021/12/30 04:17:16;;;;;;;0.95;0.30;;;;;;;;;;4999582;28;20104;-70
2021/12/30 04:19:41;;;;;;;0.82;0.35;;;;;;;;;;5014837;28;20545;-70
2021/12/30 04:22:06;;;;;;;0.80;0.32;;;;;;;;;;5014091;28;20709;-70
2021/12/30 04:24:32;;;;;;;1.33;0.43;;;;;;;;;;5034232;28;20041;-69
2021/12/30 04:26:57;;;;;;;1.85;0.30;;;;;;;;;;5031259;28;20022;-70
2021/12/30 04:29:22;;;;;;;0.65;0.30;;;;;;;;;;5016542;28;20120;-70
2021/12/30 04:31:48;;;;;;;0.45;0.30;;;;;;;;;;4999725;28;20120;-70
2021/12/30 04:34:13;;;;;;;0.32;0.32;;;;;;;;;;5028586;28;20119;-70
2021/12/30 04:36:39;;;;;;;0.50;0.20;;;;;;;;;;5024989;28;20406;-69
2021/12/30 04:39:05;;;;;;;1.40;0.30;;;;;;;;;;5015493;28;20026;-71
2021/12/30 04:41:31;;;;;;;1.17;0.30;;;;;;;;;;5012322;28;20075;-69
2021/12/30 04:43:56;;;;;;;0.90;0.50;;;;;;;;;;5033391;28;20514;-69
2021/12/30 04:46:21;;;;;;;0.28;0.20;;;;;;;;;;5030558;28;20120;-69
2021/12/30 04:48:47;;;;;;;0.68;0.20;;;;;;;;;;5021745;28;20028;-71
2021/12/30 04:51:13;;;;;;;0.70;0.20;;;;;;;;;;5034099;28;20045;-69
2021/12/30 04:53:38;;;;;;;0.88;0.30;;;;;;;;;;5033406;28;20010;-70
2021/12/30 04:56:03;;;;;;;0.55;0.32;;;;;;;;;;5016157;28;20014;-70
2021/12/30 04:58:29;;;;;;;0.68;0.20;;;;;;;;;;5026657;28;20049;-70
2021/12/30 05:00:54;;;;;;;0.82;0.20;;;;;;;;;;5033311;28;20038;-70
2021/12/30 05:03:21;;;;;;;0.35;0.20;;;;;;;;;;5010362;28;20563;-69
2021/12/30 05:05:47;;;;;;;1.58;0.20;;;;;;;;;;5033760;28;20034;-70
2021/12/30 05:08:14;;;;;;;1.17;0.30;;;;;;;;;;5032837;28;20029;-70
2021/12/30 05:10:39;;;;;;;0.63;0.28;;;;;;;;;;5024114;28;20037;-69
2021/12/30 05:13:05;;;;;;;0.85;0.30;;;;;;;;;;5025571;28;20018;-70
2021/12/30 05:15:31;;;;;;;0.50;0.20;;;;;;;;;;5033139;28;20390;-69
2021/12/30 05:17:56;;;;;;;1.58;0.45;;;;;;;;;;5032782;28;20026;-70
2021/12/30 05:20:21;;;;;;;0.95;0.30;;;;;;;;;;5029406;28;20048;-70
2021/12/30 05:22:47;;;;;;;0.63;0.30;;;;;;;;;;5014937;28;20095;-70
2021/12/30 05:25:14;;;;;;;1.23;0.32;;;;;;;;;;5032987;28;20102;-69
2021/12/30 05:27:39;;;;;;;0.88;0.30;;;;;;;;;;5009010;28;20288;-69
2021/12/30 05:30:06;;;;;;;2.72;0.50;;;;;;;;;;5029034;28;20025;-69
2021/12/30 05:32:31;;;;;;;1.30;0.50;;;;;;;;;;5031057;28;20112;-69
2021/12/30 05:34:57;;;;;;;2.35;0.40;;;;;;;;;;5032616;28;20100;-70
2021/12/30 05:37:22;;;;;;;1.20;0.50;;;;;;;;;;5029056;28;20398;-69
2021/12/30 05:39:47;;;;;;;2.70;0.30;;;;;;;;;;5028789;28;20061;-69
2021/12/30 05:42:12;;;;;;;1.17;0.52;;;;;;;;;;5030077;28;20050;-70
2021/12/30 05:44:37;;;;;;;3.38;1.00;;;;;;;;;;5029099;28;20029;-69
2021/12/30 05:47:03;;;;;;;1.05;0.40;;;;;;;;;;5032664;28;20457;-70
2021/12/30 05:49:28;;;;;;;1.88;0.57;;;;;;;;;;5032501;28;20524;-69
2021/12/30 05:51:53;;;;;;;0.90;0.60;;;;;;;;;;5030689;28;20049;-70
2021/12/30 05:54:18;;;;;;;0.88;0.50;;;;;;;;;;5014827;28;20429;-70
2021/12/30 05:56:43;;;;;;;1.95;0.80;;;;;;;;;;5027750;28;20026;-70
2021/12/30 05:59:09;;;;;;;2.40;0.80;;;;;;;;;;4997771;28;20473;-69
2021/12/30 06:01:34;;;;;;;2.95;0.98;;;;;;;;;;5015122;28;20057;-70
2021/12/30 06:03:59;;;;;;;3.03;0.63;;;;;;;;;;5031393;28;20022;-70
2021/12/30 06:06:24;;;;;;;1.67;0.93;;;;;;;;;;5014145;28;20477;-69
2021/12/30 06:08:50;;;;;;;2.80;0.70;;;;;;;;;;5031119;28;20009;-69
2021/12/30 06:11:16;;;;;;;2.90;1.02;;;;;;;;;;5026090;28;20013;-70
2021/12/30 06:13:41;;;;;;;2.28;1.05;;;;;;;;;;5028604;28;20120;-69
2021/12/30 06:16:06;;;;;;;1.88;0.82;;;;;;;;;;5025153;28;20018;-70
2021/12/30 06:18:31;;;;;;;3.83;1.25;;;;;;;;;;5027295;28;20029;-69
2021/12/30 06:20:57;;;;;;;2.90;1.17;;;;;;;;;;5031200;28;20501;-70
2021/12/30 06:23:22;;;;;;;2.95;1.27;;;;;;;;;;5031258;28;20041;-70
2021/12/30 06:25:47;;;;;;;2.67;1.20;;;;;;;;;;5031587;28;20034;-70
2021/12/30 06:28:12;;;;;;;3.92;1.30;;;;;;;;;;5031748;28;20025;-70
2021/12/30 06:30:38;;;;;;;2.80;1.20;;;;;;;;;;5029609;28;20499;-70
2021/12/30 06:33:03;;;;;;;3.30;1.45;;;;;;;;;;5027631;28;20037;-70
2021/12/30 06:35:32;;;;;;;4.47;1.70;;;;;;;;;;5013357;28;20036;-70
2021/12/30 06:37:57;;;;;;;2.97;1.63;;;;;;;;;;5031613;28;20025;-70
2021/12/30 06:40:22;;;;;;;2.92;1.98;;;;;;;;;;5028285;28;20363;-70
2021/12/30 06:42:47;;;;;;;3.60;1.83;;;;;;;;;;5045110;28;20028;-69
2021/12/30 06:45:13;;;;;;;4.40;1.80;;;;;;;;;;5036420;28;20367;-70
2021/12/30 06:47:38;;;;;;;6.38;2.00;;;;;;;;;;5030854;28;20045;-69
2021/12/30 06:50:03;;;;;;;3.92;1.70;;;;;;;;;;5031322;28;20030;-70
2021/12/30 06:52:30;;;;;;;3.15;1.85;;;;;;;;;;5019020;28;20038;-70
2021/12/30 06:54:55;;;;;;;4.00;2.03;;;;;;;;;;5023605;28;20029;-70
2021/12/30 06:57:20;;;;;;;5.50;2.28;;;;;;;;;;5014156;28;20440;-71
2021/12/30 06:59:46;;;;;;;3.85;2.30;;;;;;;;;;5005123;28;20040;-70
2021/12/30 07:02:11;;;;;;;4.55;2.47;;;;;;;;;;5031561;28;20486;-70
2021/12/30 07:04:38;;;;;;;4.90;2.60;;;;;;;;;;5025692;28;20062;-70
2021/12/30 07:07:03;;;;;;;5.55;2.72;;;;;;;;;;5030761;28;20025;-69
2021/12/30 07:09:28;;;;;;;4.03;2.00;;;;;;;;;;5011543;28;20136;-69
2021/12/30 07:11:54;;;;;;;8.73;2.60;;;;;;;;;;5016302;28;20027;-70
2021/12/30 07:14:20;;;;;;;4.32;2.30;;;;;;;;;;5036457;28;20021;-70
2021/12/30 07:16:45;;;;;;;6.15;3.05;;;;;;;;;;5043354;28;20083;-69
2021/12/30 07:19:11;;;;;;;6.40;2.97;;;;;;;;;;5041355;28;20028;-69
2021/12/30 07:21:36;;;;;;;3.22;2.53;;;;;;;;;;5012127;28;20104;-69
2021/12/30 07:24:02;;;;;;;3.92;2.85;;;;;;;;;;5009732;28;20041;-69
2021/12/30 07:26:27;;;;;;;3.85;2.03;;;;;;;;;;5033489;28;20052;-68
2021/12/30 07:28:52;;;;;;;7.05;3.10;;;;;;;;;;5035830;28;20040;-69
2021/12/30 07:31:17;;;;;;;5.78;2.58;;;;;;;;;;5035112;28;20057;-69
2021/12/30 07:33:42;;;;;;;4.63;3.05;;;;;;;;;;5032917;28;20037;-70
2021/12/30 07:36:08;;;;;;;6.43;3.13;;;;;;;;;;5030102;28;20049;-69
2021/12/30 07:38:33;;;;;;;5.00;3.20;;;;;;;;;;5032120;28;20025;-69
2021/12/30 07:40:58;;;;;;;4.00;2.60;;;;;;;;;;5029076;28;20537;-70
2021/12/30 07:43:24;;;;;;;5.28;2.85;;;;;;;;;;5011219;28;20564;-69
2021/12/30 07:45:49;;;;;;;4.40;3.42;;;;;;;;;;5034758;28;20492;-69
2021/12/30 07:48:14;;;;;;;4.10;3.10;;;;;;;;;;5033740;28;20083;-70
2021/12/30 07:50:39;;;;;;;5.78;3.60;;;;;;;;;;5034864;28;20120;-71
2021/12/30 07:53:05;;;;;;;5.53;3.05;;;;;;;;;;5016427;28;20072;-69
2021/12/30 07:55:30;;;;;;;6.22;3.25;;;;;;;;;;5035082;28;20117;-69
2021/12/30 07:57:57;;;;;;;6.90;3.28;;;;;;;;;;5016322;28;20419;-69
2021/12/30 08:00:23;;;;;;;3.92;2.58;;;;;;;;;;5034395;28;20031;-69
2021/12/30 08:02:48;;;;;;;5.90;3.33;;;;;;;;;;5012204;28;20124;-69
2021/12/30 08:05:15;;;;;;;4.13;2.35;;;;;;;;;;5034002;28;20043;-69
2021/12/30 08:07:41;;;;;;;5.93;2.55;;;;;;;;;;5016175;28;20037;-69
2021/12/30 08:10:10;;;;;;;5.32;2.58;;;;;;;;;;5011465;28;20030;-69
2021/12/30 08:12:36;;;;;;;3.20;2.28;;;;;;;;;;5032095;28;20021;-69
2021/12/30 08:15:01;;;;;;;5.07;2.85;;;;;;;;;;5009499;28;20036;-69
2021/12/30 08:17:26;;;;;;;8.38;2.40;;;;;;;;;;5034279;28;20052;-70
2021/12/30 08:19:52;;;;;;;3.67;2.08;;;;;;;;;;5029986;28;20025;-69
2021/12/30 08:22:17;;;;;;;6.93;2.88;;;;;;;;;;5034120;28;20041;-69
2021/12/30 08:24:42;;;;;;;6.18;2.10;;;;;;;;;;5016328;28;20505;-69
2021/12/30 08:27:10;;;;;;;5.20;1.90;;;;;;;;;;5024579;28;20025;-68
2021/12/30 08:29:35;;;;;;;5.38;1.70;;;;;;;;;;5011985;28;20566;-69
2021/12/30 08:32:00;;;;;;;4.38;1.75;;;;;;;;;;5016245;28;20112;-71
2021/12/30 08:34:25;;;;;;;3.65;1.52;;;;;;;;;;5014053;28;20018;-69
2021/12/30 08:36:51;;;;;;;7.13;1.50;;;;;;;;;;5032669;28;20037;-70
2021/12/30 08:39:16;;;;;;;9.18;2.40;;;;;;;;;;5030285;28;20026;-69
2021/12/30 08:41:41;;;;;;;6.78;1.77;;;;;;;;;;5024812;28;20407;-69
2021/12/30 08:44:06;;;;;;;5.70;1.58;;;;;;;;;;5026542;28;20350;-71
2021/12/30 08:46:32;;;;;;;7.03;1.75;;;;;;;;;;5032522;28;20520;-69
2021/12/30 08:48:57;;;;;;;7.53;1.65;;;;;;;;;;5031049;28;20555;-69
2021/12/30 08:51:22;;;;;;;4.60;1.23;;;;;;;;;;5031441;28;20021;-70
2021/12/30 08:53:48;;;;;;;4.40;1.25;;;;;;;;;;5013882;28;20136;-71
2021/12/30 08:56:14;;;;;;;8.63;1.42;;;;;;;;;;5015540;28;20026;-70
2021/12/30 08:58:39;;;;;;;5.45;1.70;;;;;;;;;;5014646;28;20496;-69
2021/12/30 09:01:05;;;;;;;8.40;1.23;;;;;;;;;;5030554;28;20017;-70
2021/12/30 09:03:30;;;;;;;8.27;1.65;;;;;;;;;;5031533;28;20025;-69
2021/12/30 09:05:56;;;;;;;5.88;1.05;;;;;;;;;;4997341;28;20030;-70
2021/12/30 09:08:21;;;;;;;5.40;1.50;;;;;;;;;;5014864;28;20025;-69
2021/12/30 09:10:49;;;;;;;5.22;1.15;;;;;;;;;;5029254;28;20144;-70
2021/12/30 09:13:15;;;;;;;4.28;1.10;;;;;;;;;;5032995;28;20068;-70
2021/12/30 09:15:41;;;;;;;7.00;1.42;;;;;;;;;;5031294;28;20026;-69
2021/12/30 09:18:07;;;;;;;6.53;0.93;;;;;;;;;;5014709;28;20183;-69
2021/12/30 09:20:32;;;;;;;3.50;1.23;;;;;;;;;;5032217;28;20049;-69
2021/12/30 09:22:57;;;;;;;5.35;1.10;;;;;;;;;;5032764;28;20028;-68
2021/12/30 09:25:24;;;;;;;5.07;0.80;;;;;;;;;;5031022;28;20026;-70
2021/12/30 09:27:50;;;;;;;5.05;1.00;;;;;;;;;;5026627;28;20034;-69
2021/12/30 09:30:15;;;;;;;4.07;0.88;;;;;;;;;;5031609;28;20021;-70
2021/12/30 09:32:41;;;;;;;3.55;0.90;;;;;;;;;;5032369;28;20385;-70
2021/12/30 09:35:08;;;;;;;5.75;0.77;;;;;;;;;;5031982;28;20091;-70
2021/12/30 09:37:33;;;;;;;4.82;0.98;;;;;;;;;;5031507;28;20075;-70
2021/12/30 09:39:59;;;;;;;5.30;1.05;;;;;;;;;;5027953;28;20088;-70
2021/12/30 09:42:25;;;;;;;4.65;0.73;;;;;;;;;;5031612;28;20057;-70
2021/12/30 09:44:50;;;;;;;3.25;0.70;;;;;;;;;;5013935;28;20516;-69
2021/12/30 09:47:15;;;;;;;3.90;0.82;;;;;;;;;;5032166;28;20018;-70
2021/12/30 09:49:40;;;;;;;2.17;0.75;;;;;;;;;;5032080;28;20044;-70
2021/12/30 09:52:06;;;;;;;4.50;1.35;;;;;;;;;;5031653;28;20048;-70
2021/12/30 09:54:31;;;;;;;4.47;1.35;;;;;;;;;;5031335;28;20029;-70
2021/12/30 09:56:56;;;;;;;5.68;0.98;;;;;;;;;;5031796;28;20092;-71
2021/12/30 09:59:25;;;;;;;2.88;0.63;;;;;;;;;;5031677;28;20026;-70
2021/12/30 10:01:50;;;;;;;4.60;0.68;;;;;;;;;;5031485;28;20029;-70
2021/12/30 10:04:16;;;;;;;5.18;0.90;;;;;;;;;;5013977;28;20021;-70
2021/12/30 10:06:45;;;;;;;2.60;0.85;;;;;;;;;;5031321;28;20080;-70
2021/12/30 10:09:14;;;;;;;5.60;0.60;;;;;;;;;;5012375;28;20021;-70
2021/12/30 10:11:50;;;;;;;3.17;0.73;;;;;;;;;;5018610;28;20022;-70
2021/12/30 10:14:29;;;;;;;4.00;0.68;;;;;;;;;;5019754;28;20014;-70
2021/12/30 10:17:13;;;;;;;5.25;1.15;;;;;;;;;;5026860;28;20479;-70
2021/12/30 10:19:38;;;;;;;3.55;1.27;;;;;;;;;;5036967;28;20036;-70
2021/12/30 10:22:10;;;;;;;3.55;0.90;;;;;;;;;;5031105;28;20013;-70
2021/12/30 10:24:36;;;;;;;4.20;1.10;;;;;;;;;;5031815;28;20052;-70
2021/12/30 10:27:01;;;;;;;3.50;1.00;;;;;;;;;;5014291;28;20466;-70
2021/12/30 10:29:28;;;;;;;5.35;0.77;;;;;;;;;;5028750;28;20486;-69
2021/12/30 10:31:53;;;;;;;2.95;0.60;;;;;;;;;;5031226;28;20083;-71
2021/12/30 10:34:19;;;;;;;3.92;0.73;;;;;;;;;;5030878;28;20231;-70
2021/12/30 10:36:46;;;;;;;2.97;0.50;;;;;;;;;;5031177;28;20033;-69
2021/12/30 10:39:20;;;;;;;3.15;1.02;;;;;;;;;;5010779;28;20030;-69
2021/12/30 10:41:46;;;;;;;1.42;0.45;;;;;;;;;;5038104;28;20049;-70
2021/12/30 10:44:12;;;;;;;3.58;0.55;;;;;;;;;;5018933;28;20037;-71
2021/12/30 10:46:37;;;;;;;4.20;0.70;;;;;;;;;;5014023;28;20113;-70
2021/12/30 10:49:08;;;;;;;1.58;0.40;;;;;;;;;;5028697;28;20429;-69
2021/12/30 10:51:36;;;;;;;2.05;0.40;;;;;;;;;;5031397;28;20017;-69
2021/12/30 10:54:13;;;;;;;2.63;0.50;;;;;;;;;;5012127;28;20108;-70
2021/12/30 10:56:42;;;;;;;4.65;0.55;;;;;;;;;;5026735;28;20025;-70
2021/12/30 10:59:22;;;;;;;2.90;0.63;;;;;;;;;;5027933;28;20128;-70
2021/12/30 11:01:51;;;;;;;3.30;0.50;;;;;;;;;;5035489;28;20029;-69
2021/12/30 11:04:17;;;;;;;1.85;0.38;;;;;;;;;;5019457;28;20045;-70
2021/12/30 11:06:43;;;;;;;3.35;0.40;;;;;;;;;;5031784;28;20053;-70
2021/12/30 11:09:19;;;;;;;2.00;0.35;;;;;;;;;;5035171;28;20478;-69
2021/12/30 11:11:48;;;;;;;3.58;0.52;;;;;;;;;;5034427;28;20029;-71
2021/12/30 11:14:15;;;;;;;2.15;0.30;;;;;;;;;;5016043;28;20205;-70
2021/12/30 11:16:57;;;;;;;48.88;2.70;;;;;;;;;;5031748;28;20017;-69
2021/12/30 11:19:23;;;;;;;0.85;0.25;;;;;;;;;;5018759;28;20017;-70
2021/12/30 11:21:51;;;;;;;1.30;0.30;;;;;;;;;;5018549;28;20535;-70
2021/12/30 11:24:16;;;;;;;1.73;0.40;;;;;;;;;;5019133;28;20433;-70
2021/12/30 11:26:42;;;;;;;0.60;0.20;;;;;;;;;;5037246;28;20025;-70
2021/12/30 11:29:07;;;;;;;2.95;0.43;;;;;;;;;;5037750;28;20402;-70
2021/12/30 11:31:33;;;;;;;0.90;0.32;;;;;;;;;;5037449;28;20429;-70
2021/12/30 11:33:58;;;;;;;2.25;0.40;;;;;;;;;;5036817;28;20362;-70
2021/12/30 11:36:24;;;;;;;3.25;0.55;;;;;;;;;;5036910;28;20112;-70
2021/12/30 11:38:49;;;;;;;1.85;0.50;;;;;;;;;;5036948;28;20037;-70
2021/12/30 11:41:18;;;;;;;1.52;0.50;;;;;;;;;;5030736;28;20084;-70
2021/12/30 11:43:44;;;;;;;2.10;0.63;;;;;;;;;;5035984;28;20032;-71
2021/12/30 11:46:28;;;;;;;3.67;0.40;;;;;;;;;;5037494;28;20029;-70
2021/12/30 11:48:54;;;;;;;1.75;0.32;;;;;;;;;;5036912;28;20034;-68
2021/12/30 11:51:22;;;;;;;2.00;0.40;;;;;;;;;;5036535;28;20120;-67
2021/12/30 11:53:48;;;;;;;0.73;0.22;;;;;;;;;;5036305;28;20409;-67
2021/12/30 11:56:24;;;;;;;0.60;0.20;;;;;;;;;;5037350;28;20032;-68
2021/12/30 11:58:54;;;;;;;1.95;0.25;;;;;;;;;;5018671;28;20489;-67
2021/12/30 12:01:20;;;;;;;1.98;0.20;;;;;;;;;;5018700;28;20017;-68
2021/12/30 12:03:59;;;;;;;0.30;0.17;;;;;;;;;;5036170;28;20045;-67
2021/12/30 12:06:27;;;;;;;1.10;0.15;;;;;;;;;;5037889;28;20161;-67
2021/12/30 12:09:01;;;;;;;0.30;0.17;;;;;;;;;;5018188;28;20025;-67
2021/12/30 12:11:27;;;;;;;0.30;0.20;;;;;;;;;;5013505;28;20034;-67
2021/12/30 12:13:54;;;;;;;0.60;0.20;;;;;;;;;;5031224;28;20378;-67
2021/12/30 12:16:37;;;;;;;0.30;0.20;;;;;;;;;;5031775;28;20013;-66
2021/12/30 12:19:05;;;;;;;0.25;0.10;;;;;;;;;;5024241;28;20021;-67
2021/12/30 12:21:40;;;;;;;0.55;0.10;;;;;;;;;;5031723;28;20084;-67
2021/12/30 12:24:21;;;;;;;0.85;0.10;;;;;;;;;;5032652;28;20022;-67
2021/12/30 12:26:47;;;;;;;0.30;0.10;;;;;;;;;;5015508;28;20116;-67
2021/12/30 12:29:25;;;;;;;0.15;0.10;;;;;;;;;;5033959;28;20079;-67
2021/12/30 12:31:57;;;;;;;0.35;0.10;;;;;;;;;;5031520;28;20038;-66
2021/12/30 12:34:41;;;;;;;0.17;0.10;;;;;;;;;;5032813;28;20063;-66
2021/12/30 12:37:27;;;;;;;0.50;0.20;;;;;;;;;;5038343;28;20021;-66
2021/12/30 12:39:52;;;;;;;;;;;;;;;;;;5013534;28;20030;-65
2021/12/30 12:42:17;;;;;;;0.28;0.10;;;;;;;;;;5031159;28;20297;-65
2021/12/30 12:44:44;;;;;;;0.73;0.20;;;;;;;;;;5028144;28;20053;-65
2021/12/30 12:47:15;;;;;;;1.55;0.10;;;;;;;;;;5018880;28;20075;-65
2021/12/30 12:49:41;;;;;;;0.50;0.17;;;;;;;;;;5033030;28;20026;-66
2021/12/30 12:52:07;;;;;;;0.52;0.20;;;;;;;;;;5033138;28;20402;-66
2021/12/30 12:54:33;;;;;;;0.32;0.10;;;;;;;;;;5033694;28;20051;-66
2021/12/30 12:57:09;;;;;;;0.77;0.10;;;;;;;;;;5032939;28;20112;-67
2021/12/30 12:59:35;;;;;;;0.75;0.20;;;;;;;;;;5015646;28;20100;-66
2021/12/30 13:02:01;;;;;;;0.35;0.25;;;;;;;;;;5033793;28;20136;-66
2021/12/30 13:04:26;;;;;;;0.25;0.10;;;;;;;;;;5030845;28;20478;-66
2021/12/30 13:06:51;;;;;;;0.57;0.10;;;;;;;;;;5032263;28;20040;-66
2021/12/30 13:09:17;;;;;;;0.85;0.10;;;;;;;;;;5029833;28;20037;-66
2021/12/30 13:11:46;;;;;;;0.10;0.05;;;;;;;;;;5028456;28;20409;-66
2021/12/30 13:14:15;;;;;;;0.10;0.10;;;;;;;;;;5032986;28;20006;-67
2021/12/30 13:16:40;;;;;;;0.10;0.08;;;;;;;;;;5033524;28;20100;-67
2021/12/30 13:19:09;;;;;;;0.82;0.10;;;;;;;;;;5032911;28;20096;-66
2021/12/30 13:21:38;;;;;;;0.10;0.10;;;;;;;;;;5026351;28;20033;-66
2021/12/30 13:24:03;;;;;;;0.50;0.10;;;;;;;;;;5022546;28;20547;-66
2021/12/30 13:26:35;;;;;;;0.75;0.10;;;;;;;;;;5007575;28;20025;-66
2021/12/30 13:29:01;;;;;;;0.10;0.10;;;;;;;;;;5023980;28;20033;-67
2021/12/30 13:31:27;;;;;;;0.20;0.10;;;;;;;;;;5004849;28;20033;-67
2021/12/30 13:33:52;;;;;;;0.30;0.10;;;;;;;;;;5021400;28;20028;-66
2021/12/30 13:36:17;;;;;;;0.32;0.00;;;;;;;;;;5017200;28;20032;-66
2021/12/30 13:38:43;;;;;;;0.40;0.10;;;;;;;;;;5021633;28;20105;-66
2021/12/30 13:41:15;;;;;;;0.10;0.00;;;;;;;;;;5017771;28;20045;-67
2021/12/30 13:43:41;;;;;;;0.10;0.00;;;;;;;;;;5023097;28;20056;-66
2021/12/30 13:46:06;;;;;;;0.08;0.00;;;;;;;;;;5023717;28;20052;-66
2021/12/30 13:48:41;;;;;;;0.10;0.10;;;;;;;;;;5024368;28;20489;-66
2021/12/30 13:51:13;;;;;;;0.10;0.10;;;;;;;;;;5021500;28;20029;-66
2021/12/30 13:53:39;;;;;;;0.95;0.20;;;;;;;;;;5021179;28;20036;-67
2021/12/30 13:56:06;;;;;;;0.30;0.20;;;;;;;;;;5025632;28;20079;-67
2021/12/30 13:58:36;;;;;;;0.70;0.13;;;;;;;;;;5003266;28;20433;-67
2021/12/30 14:01:03;;;;;;;0.30;0.20;;;;;;;;;;5023910;28;20670;-67
2021/12/30 14:03:33;;;;;;;0.40;0.20;;;;;;;;;;5024012;28;20401;-67
2021/12/30 14:06:17;;;;;;;0.17;0.10;;;;;;;;;;5024095;28;20097;-67
2021/12/30 14:09:03;;;;;;;0.20;0.10;;;;;;;;;;5020429;28;20036;-67
2021/12/30 14:11:32;;;;;;;0.15;0.10;;;;;;;;;;5037116;28;20040;-67
2021/12/30 14:13:59;;;;;;;0.60;0.10;;;;;;;;;;5024014;28;20082;-67
2021/12/30 14:16:30;;;;;;;0.32;0.10;;;;;;;;;;5023526;28;20029;-67
2021/12/30 14:18:57;;;;;;;0.20;0.10;;;;;;;;;;5024386;28;20067;-66
2021/12/30 14:21:25;;;;;;;0.15;0.10;;;;;;;;;;5020471;28;20080;-66
2021/12/30 14:23:53;;;;;;;0.10;0.10;;;;;;;;;;5007720;28;20116;-66
2021/12/30 14:26:21;;;;;;;0.25;0.10;;;;;;;;;;5021063;28;20036;-66
2021/12/30 14:28:48;;;;;;;0.30;0.10;;;;;;;;;;5003134;28;20020;-66
2021/12/30 14:31:41;;;;;;;0.15;0.10;;;;;;;;;;5025930;28;20091;-66
2021/12/30 14:34:11;;;;;;;0.17;0.17;;;;;;;;;;5004278;28;20030;-67
2021/12/30 14:37:05;;;;;;;0.10;0.10;;;;;;;;;;5026624;28;20056;-66
2021/12/30 14:39:43;;;;;;;0.10;0.10;;;;;;;;;;4999703;28;20088;-68
2021/12/30 14:42:12;;;;;;;1.75;0.10;;;;;;;;;;5032866;28;20038;-65
2021/12/30 14:44:38;;;;;;;0.30;0.20;;;;;;;;;;5031206;28;20013;-65